Airfield :
LOGIN :

Register | Disclaimer

   EN    FR    IT 

 










Legend :    VFR   Marginal VFR   IFR   Intensive IFR   Very Intensive IFR
Visi :
Ceiling :
>= 8 km
>= 3000ft
5 to 8 km
1000 to 3000 ft
1500m to 5 km
500 to 1000 ft
800 to 1500m
200 to 500 ft
< 800m
< 200 ft
Symbols :   Thunderstorms  Fog  Heavy snow  Heavy precipitations  Wind > 20 kt
SIGMETs :     Misc.  Thunderstorms  Icing  Turbulence  Mountain Waves  Volcanic Ashes







- Airport Elevation : 538 ft
- IATA code : TNF
- Download approach charts


LFPN - Toussus Le Noble

CURRENT METAR :
  • 141430Z AUTO 24010KT 9999 -RA SCT021/// BKN026/// BKN035/// ///TCU 06/04 Q0996 TEMPO 24020G37KT 2000 TSGS BKN025CB

EXPIRED METARs :
  • 141400Z AUTO 23012KT 9999 -RA SCT020 BKN025 BKN064 06/04 Q0997 TEMPO 24020G40KT 2000 TSGS BKN025CB
  • 141330Z AUTO 24013KT 9999 SCT024 SCT036 OVC090 07/04 Q0997 TEMPO 24020G40KT 2000 TSGS BKN025CB
  • 141300Z AUTO 23015KT 9999 BKN022 BKN027 OVC084 07/04 Q0998 TEMPO 24020G40KT 2000 TSGS BKN025CB
  • 141230Z AUTO 24013KT 9999 BKN023 OVC029 07/04 Q0998 TEMPO 24020G40KT 2000 TSGS BKN025CB
  • 141200Z AUTO 24014KT 9999 BKN026 OVC033 06/04 Q0999 TEMPO 24020G40KT 2000 TSGS BKN025CB

TAF TAF LFPN
Valid from the 14 at 15:00 until the 15 at 00:00 UTC


141400Z 1415/1424 24013KT 9999 BKN030
TEMPO 1415/1421 4000 SHRA BKN025TCU
PROB30
TEMPO 1415/1418 24020G37KT 2000 TSGS BKN025CB
TEMPO 1421/1424 24017G27KT SCT025TCU
ATIS : +33 1 39 56 54 70
No reported NOTAMs for that airfield.
2 SIGMETs reported for the Paris FIR (LFFF) :
 
Embedded thunderstorms
LFFF SIGMET 9 VALID 141330/141530 LFPW
LFFF PARIS FIR/UIR EMBD TS FCST WI N4900 W00015 - N5000 W00015 - N5115 E00200 - N5100 E00245 - N4915 E00045 - N4900 W00015 TOP FL290 MOV E 30KT NC=
Severe turbulence
LFFF SIGMET 8 VALID 141300/141500 LFPW
LFFF PARIS FIR/UIR SEV TURB OBS AT 1300Z S OF N4700 AND E OF E00330 FL160/250 STNR NC=



MET'MAP, your aeronautical weather chart ! - Copyright ORBIFLY December 2007 - Disclaimer

ORBIFLY MET'MAP TEAM :

Programming & Development : Alexandra Zaïnal
Concept & Development : Baudouin d'Aumeries
Co-Development & Prog : Marc-Olivier Méhu
Technical & hardware support : Manuel Goepfert

Contact : metmap@orbifly.com




SOURCES & CREDITS :

   NOAA